Time;durP1;ratioP1;P1;durP2;ratioP2;P2;SDS_P1;SDS_P2;PMS_P1;PMS_P2;Temp;Humidity;BMP_temperature;BMP_pressure;BME280_temperature;BME280_humidity;BME280_pressure;Samples;Min_cycle;Max_cycle;Signal;HPM_P1;HPM_P2
2023/03/18 00:00:10;;;;;;;81.70;28.90;;;;;;;10.10;100.00;100712.88;5070231;28;20020;-50
2023/03/18 00:02:37;;;;;;;80.18;29.52;;;;;;;10.08;100.00;100714.06;5069965;28;20086;-50
2023/03/18 00:05:04;;;;;;;77.50;28.90;;;;;;;10.01;100.00;100721.22;5070251;28;20036;-50
2023/03/18 00:07:30;;;;;;;77.50;30.27;;;;;;;9.95;100.00;100713.84;5070490;28;20033;-49
2023/03/18 00:09:55;;;;;;;78.45;30.60;;;;;;;9.91;100.00;100704.50;5070389;28;20028;-51
2023/03/18 00:12:20;;;;;;;91.97;32.70;;;;;;;9.89;100.00;100716.25;5069303;28;20025;-49
2023/03/18 00:14:46;;;;;;;87.18;31.80;;;;;;;9.89;100.00;100723.50;5070249;28;20029;-50
2023/03/18 00:17:12;;;;;;;85.20;30.65;;;;;;;9.89;100.00;100712.72;5070005;28;20028;-49
2023/03/18 00:19:37;;;;;;;88.78;30.83;;;;;;;9.89;100.00;100716.25;5069901;28;20060;-50
2023/03/18 00:22:03;;;;;;;89.00;31.30;;;;;;;9.89;100.00;100718.13;5069943;28;20025;-49
2023/03/18 00:24:29;;;;;;;104.28;32.42;;;;;;;9.90;100.00;100714.44;5069482;28;20068;-51
2023/03/18 00:26:54;;;;;;;86.80;32.45;;;;;;;9.90;100.00;100719.81;5069873;28;20090;-49
2023/03/18 00:29:20;;;;;;;78.80;30.65;;;;;;;9.91;100.00;100712.56;5069866;28;20055;-51
2023/03/18 00:31:45;;;;;;;93.22;33.08;;;;;;;9.91;100.00;100716.09;5070136;28;20025;-55
2023/03/18 00:34:11;;;;;;;96.03;32.03;;;;;;;9.88;100.00;100711.91;5069521;28;20024;-49
2023/03/18 00:36:38;;;;;;;92.50;32.63;;;;;;;9.89;100.00;100716.25;5069414;28;20035;-52
2023/03/18 00:39:04;;;;;;;83.85;31.95;;;;;;;9.88;100.00;100717.28;5069721;28;20033;-50
2023/03/18 00:41:31;;;;;;;96.45;34.47;;;;;;;9.86;100.00;100719.31;5069902;28;20051;-51
2023/03/18 00:43:58;;;;;;;83.68;31.63;;;;;;;9.88;100.00;100709.22;5068877;28;20070;-51
2023/03/18 00:46:26;;;;;;;87.45;34.53;;;;;;;9.87;100.00;100710.25;5071901;28;20056;-51
2023/03/18 00:48:53;;;;;;;95.80;35.17;;;;;;;9.87;100.00;100721.00;5073000;28;20104;-50
2023/03/18 00:51:21;;;;;;;89.43;31.25;;;;;;;9.85;100.00;100716.81;5073350;28;20027;-49
2023/03/18 00:53:50;;;;;;;95.15;33.95;;;;;;;9.85;100.00;100712.28;5072744;28;20107;-50
2023/03/18 00:56:17;;;;;;;97.50;34.92;;;;;;;9.88;100.00;100711.91;5056443;28;20043;-50
2023/03/18 00:58:44;;;;;;;90.88;33.30;;;;;;;9.89;100.00;100721.63;5072947;28;20032;-53
2023/03/18 01:01:11;;;;;;;88.78;32.30;;;;;;;9.84;100.00;100718.66;5072716;28;20063;-51
2023/03/18 01:03:36;;;;;;;84.85;32.75;;;;;;;9.79;100.00;100712.97;5072977;28;20032;-52
2023/03/18 01:06:03;;;;;;;84.88;33.67;;;;;;;9.75;100.00;100709.00;5072901;28;20461;-49
2023/03/18 01:08:31;;;;;;;103.63;33.97;;;;;;;9.72;100.00;100714.72;5073361;28;20111;-51
2023/03/18 01:10:57;;;;;;;96.25;33.08;;;;;;;9.71;100.00;100715.72;5073188;28;20028;-50
2023/03/18 01:13:24;;;;;;;91.10;32.47;;;;;;;9.69;100.00;100717.78;5073050;28;20097;-48
2023/03/18 01:15:50;;;;;;;93.97;33.55;;;;;;;9.69;100.00;100709.72;5073199;28;20411;-49
2023/03/18 01:18:16;;;;;;;94.70;36.38;;;;;;;9.73;100.00;100718.25;5073219;28;20104;-50
2023/03/18 01:20:43;;;;;;;100.63;35.40;;;;;;;9.75;100.00;100717.06;5073177;28;20052;-49
2023/03/18 01:23:09;;;;;;;96.00;34.60;;;;;;;9.76;100.00;100718.72;5072959;28;20059;-52
2023/03/18 01:25:34;;;;;;;97.40;32.95;;;;;;;9.78;100.00;100731.97;5072440;28;20032;-52
2023/03/18 01:27:59;;;;;;;100.75;35.38;;;;;;;9.78;100.00;100730.13;5072626;28;20074;-50
2023/03/18 01:30:25;;;;;;;97.88;36.92;;;;;;;9.79;100.00;100715.66;5071972;28;20028;-50
2023/03/18 01:32:50;;;;;;;93.28;35.03;;;;;;;9.77;100.00;100715.03;5072597;28;20102;-51
2023/03/18 01:35:16;;;;;;;86.20;32.88;;;;;;;9.80;100.00;100720.03;5072396;28;20368;-50
2023/03/18 01:37:42;;;;;;;95.35;35.78;;;;;;;9.77;100.00;100725.78;5072779;28;20052;-50
2023/03/18 01:40:10;;;;;;;93.25;34.70;;;;;;;9.77;100.00;100725.78;5072263;28;20502;-53
2023/03/18 01:42:36;;;;;;;90.65;35.00;;;;;;;9.75;100.00;100722.44;5071521;28;20063;-54
2023/03/18 01:45:24;;;;;;;90.80;36.72;;;;;;;9.78;100.00;100726.59;5072125;28;20024;-51
2023/03/18 01:47:50;;;;;;;87.50;34.95;;;;;;;9.74;100.00;100718.09;5072573;28;20021;-50
2023/03/18 01:50:21;;;;;;;103.53;36.60;;;;;;;9.73;100.00;100724.44;5071942;28;20024;-50
2023/03/18 01:52:51;;;;;;;90.00;36.13;;;;;;;9.73;100.00;100729.81;5070890;28;20028;-50
2023/03/18 01:55:21;;;;;;;94.80;35.50;;;;;;;9.73;100.00;100729.00;5069115;28;20078;-50
2023/03/18 01:57:48;;;;;;;91.65;37.40;;;;;;;9.74;100.00;100731.53;5070269;28;20082;-53
2023/03/18 02:00:15;;;;;;;86.47;37.75;;;;;;;9.81;100.00;100739.69;5070137;28;20112;-52
2023/03/18 02:02:42;;;;;;;101.72;37.28;;;;;;;9.86;100.00;100740.81;5071373;28;20090;-50
2023/03/18 02:05:10;;;;;;;101.20;36.22;;;;;;;9.92;100.00;100738.41;5071104;28;20028;-50
2023/03/18 02:07:36;;;;;;;93.10;35.15;;;;;;;9.95;100.00;100733.50;5056158;28;20032;-51
2023/03/18 02:10:12;;;;;;;99.43;36.20;;;;;;;10.00;100.00;100733.81;5052656;28;20085;-52
2023/03/18 02:12:41;;;;;;;90.03;35.00;;;;;;;10.02;100.00;100722.88;5071513;28;20374;-52
2023/03/18 02:15:10;;;;;;;85.60;34.60;;;;;;;10.04;100.00;100720.84;5071962;28;20031;-52
2023/03/18 02:17:41;;;;;;;84.03;33.00;;;;;;;10.10;100.00;100720.94;5071668;28;20039;-50
2023/03/18 02:20:21;;;;;;;84.97;33.78;;;;;;;10.03;100.00;100716.47;5071674;28;20411;-51
2023/03/18 02:22:55;;;;;;;92.90;35.00;;;;;;;9.97;100.00;100714.53;5070895;28;20425;-51
2023/03/18 02:25:36;;;;;;;89.55;34.22;;;;;;;9.97;100.00;100726.09;5070616;28;20024;-50
2023/03/18 02:28:04;;;;;;;83.82;35.85;;;;;;;9.91;100.00;100710.72;5069967;28;20025;-53
2023/03/18 02:30:36;;;;;;;87.88;33.00;;;;;;;9.91;100.00;100718.78;5071804;28;20086;-53
2023/03/18 02:33:03;;;;;;;79.10;32.20;;;;;;;9.88;100.00;100716.44;5070115;28;20031;-52
2023/03/18 02:35:29;;;;;;;84.05;34.97;;;;;;;9.86;100.00;100727.38;5070251;28;20025;-50
2023/03/18 02:37:54;;;;;;;91.13;33.92;;;;;;;9.86;100.00;100730.06;5071472;28;20016;-51
2023/03/18 02:40:28;;;;;;;72.72;33.30;;;;;;;9.81;100.00;100728.94;5071608;28;20035;-50
2023/03/18 02:42:54;;;;;;;83.57;32.15;;;;;;;9.75;100.00;100733.19;5070990;28;20393;-50
2023/03/18 02:45:49;;;;;;;82.15;34.05;;;;;;;9.77;100.00;100733.84;5071206;28;20039;-50
2023/03/18 02:48:16;;;;;;;84.72;32.28;;;;;;;9.76;100.00;100729.47;5034168;28;20475;-52
2023/03/18 02:50:41;;;;;;;82.53;33.90;;;;;;;9.80;100.00;100738.03;5070089;28;20150;-52
2023/03/18 02:53:07;;;;;;;85.65;32.17;;;;;;;9.80;100.00;100736.16;5070755;28;20119;-51
2023/03/18 02:55:32;;;;;;;77.10;32.60;;;;;;;9.88;100.00;100738.78;5069734;28;20036;-52
2023/03/18 02:57:58;;;;;;;84.35;32.63;;;;;;;9.91;100.00;100742.13;5070833;28;20028;-51
2023/03/18 03:00:23;;;;;;;74.90;32.28;;;;;;;9.97;100.00;100736.84;5071041;28;20052;-50
2023/03/18 03:02:49;;;;;;;79.05;31.90;;;;;;;10.02;100.00;100734.47;5070329;28;20037;-51
2023/03/18 03:05:15;;;;;;;77.45;31.63;;;;;;;10.07;100.00;100736.63;5070379;28;20027;-50
2023/03/18 03:07:41;;;;;;;76.75;31.27;;;;;;;10.09;100.00;100737.28;5070464;28;20033;-52
2023/03/18 03:10:07;;;;;;;75.10;30.70;;;;;;;10.10;100.00;100737.09;5070761;28;20024;-50
2023/03/18 03:12:33;;;;;;;73.97;31.30;;;;;;;10.14;100.00;100732.19;5069915;28;20037;-50
2023/03/18 03:14:58;;;;;;;81.82;31.13;;;;;;;10.13;100.00;100735.06;5069948;28;20395;-50
2023/03/18 03:17:23;;;;;;;77.10;30.92;;;;;;;10.13;100.00;100741.25;5069437;28;20067;-51
2023/03/18 03:19:49;;;;;;;77.20;32.28;;;;;;;10.10;100.00;100742.47;5070069;28;20036;-51
2023/03/18 03:22:16;;;;;;;83.80;31.85;;;;;;;10.10;100.00;100737.09;5070129;28;20123;-52
2023/03/18 03:24:42;;;;;;;74.28;31.38;;;;;;;10.13;100.00;100746.63;5070545;28;20032;-50
2023/03/18 03:27:07;;;;;;;73.88;31.73;;;;;;;10.14;100.00;100751.03;5070135;28;20125;-50
2023/03/18 03:29:33;;;;;;;77.82;29.48;;;;;;;10.11;100.00;100748.69;5069824;28;20060;-50
2023/03/18 03:31:58;;;;;;;70.70;30.15;;;;;;;10.09;100.00;100756.94;5070082;28;20020;-51
2023/03/18 03:34:23;;;;;;;78.28;32.88;;;;;;;10.11;100.00;100764.84;5070202;28;20029;-49
2023/03/18 03:36:49;;;;;;;84.63;34.08;;;;;;;10.00;100.00;100776.00;5069398;28;20471;-49
2023/03/18 03:39:14;;;;;;;73.18;31.67;;;;;;;9.95;100.00;100776.53;5070100;28;20352;-51
2023/03/18 03:41:39;;;;;;;80.95;33.72;;;;;;;9.91;100.00;100782.47;5069644;28;20162;-50
2023/03/18 03:44:05;;;;;;;77.55;32.17;;;;;;;9.93;100.00;100794.72;5070009;28;20090;-51
2023/03/18 03:46:30;;;;;;;83.43;35.35;;;;;;;9.85;100.00;100792.91;5069864;28;20031;-51
2023/03/18 03:48:56;;;;;;;83.28;35.15;;;;;;;9.86;100.00;100793.75;5069408;28;20560;-52
2023/03/18 03:51:22;;;;;;;91.22;34.92;;;;;;;9.85;100.00;100803.66;5069683;28;20029;-51
2023/03/18 03:53:48;;;;;;;79.28;33.17;;;;;;;9.82;100.00;100795.97;5069511;28;20082;-52
2023/03/18 03:56:14;;;;;;;76.30;34.92;;;;;;;9.79;100.00;100804.34;5068032;28;20025;-54
2023/03/18 03:58:39;;;;;;;79.32;34.92;;;;;;;9.82;100.00;100803.16;5069418;28;20079;-52
2023/03/18 04:01:05;;;;;;;77.50;35.30;;;;;;;9.82;100.00;100801.34;5067998;28;20496;-53
2023/03/18 04:03:30;;;;;;;84.45;34.55;;;;;;;9.87;100.00;100790.88;5069844;28;20028;-51
2023/03/18 04:05:56;;;;;;;80.65;34.42;;;;;;;9.89;100.00;100796.06;5070343;28;20107;-51
2023/03/18 04:08:21;;;;;;;83.32;34.75;;;;;;;9.88;100.00;100797.09;5070289;28;20033;-53
2023/03/18 04:10:47;;;;;;;80.97;34.17;;;;;;;9.88;100.00;100792.56;5070140;28;20040;-49
2023/03/18 04:13:12;;;;;;;74.35;33.92;;;;;;;9.92;100.00;100801.09;5070028;28;20035;-52
2023/03/18 04:15:37;;;;;;;76.55;34.25;;;;;;;9.90;100.00;100808.50;5069744;28;20029;-51
2023/03/18 04:18:05;;;;;;;75.18;33.97;;;;;;;9.93;100.00;100810.00;5069813;28;20419;-51
2023/03/18 04:20:38;;;;;;;86.15;34.13;;;;;;;9.93;100.00;100815.38;5071332;28;20076;-51
2023/03/18 04:23:06;;;;;;;75.35;32.97;;;;;;;9.88;100.00;100827.50;5073807;28;20032;-53
2023/03/18 04:25:32;;;;;;;73.53;32.25;;;;;;;9.83;100.00;100821.81;5073726;28;20028;-50
2023/03/18 04:27:57;;;;;;;66.93;31.23;;;;;;;9.82;100.00;100821.97;5073737;28;20032;-50
2023/03/18 04:30:24;;;;;;;69.60;32.13;;;;;;;9.82;100.00;100825.53;5073723;28;20094;-51
2023/03/18 04:32:51;;;;;;;71.03;30.67;;;;;;;9.80;100.00;100832.09;5072981;28;20028;-52
2023/03/18 04:35:16;;;;;;;71.38;32.88;;;;;;;9.76;100.00;100830.75;5073569;28;20357;-50
2023/03/18 04:37:43;;;;;;;70.53;31.15;;;;;;;9.77;100.00;100832.41;5071789;28;20021;-50
2023/03/18 04:40:10;;;;;;;72.30;32.40;;;;;;;9.80;100.00;100838.31;5073076;28;20032;-52
2023/03/18 04:42:36;;;;;;;72.68;30.75;;;;;;;9.80;100.00;100841.00;5072810;28;20181;-51
2023/03/18 04:45:04;;;;;;;65.80;30.05;;;;;;;9.82;100.00;100847.03;5073214;28;20028;-49
2023/03/18 04:47:31;;;;;;;76.82;32.25;;;;;;;9.75;100.00;100846.06;5072413;28;20455;-52
2023/03/18 04:49:56;;;;;;;71.10;30.15;;;;;;;9.80;100.00;100843.69;5072788;28;20036;-51
2023/03/18 04:52:23;;;;;;;65.97;29.98;;;;;;;9.79;100.00;100852.72;5072842;28;20040;-50
2023/03/18 04:54:49;;;;;;;62.80;30.23;;;;;;;9.81;100.00;100855.25;5072616;28;20036;-53
2023/03/18 04:57:15;;;;;;;71.07;30.20;;;;;;;9.76;100.00;100858.47;5072441;28;20393;-51
2023/03/18 04:59:40;;;;;;;72.22;31.75;;;;;;;9.76;100.00;100861.16;5073118;28;20024;-54
2023/03/18 05:02:07;;;;;;;75.82;31.83;;;;;;;9.74;100.00;100857.84;5072834;28;20540;-53
2023/03/18 05:04:32;;;;;;;67.15;30.92;;;;;;;9.73;100.00;100861.50;5072793;28;20089;-52
2023/03/18 05:06:58;;;;;;;63.40;30.77;;;;;;;9.71;100.00;100852.78;5072512;28;20115;-51
2023/03/18 05:09:24;;;;;;;71.72;32.47;;;;;;;9.68;100.00;100861.19;5072352;28;20397;-51
2023/03/18 05:11:49;;;;;;;69.65;31.92;;;;;;;9.65;100.00;100861.56;5072506;28;20174;-51
2023/03/18 05:14:15;;;;;;;65.97;30.23;;;;;;;9.64;100.00;100855.34;5071432;28;20494;-50
2023/03/18 05:16:41;;;;;;;63.60;29.92;;;;;;;9.66;100.00;100857.84;5075827;28;20063;-50
2023/03/18 05:19:08;;;;;;;68.53;29.30;;;;;;;9.67;100.00;100852.31;5072037;28;20024;-49
2023/03/18 05:21:34;;;;;;;73.20;29.63;;;;;;;9.70;100.00;100844.91;5071991;28;20432;-51
2023/03/18 05:24:00;;;;;;;67.90;29.55;;;;;;;9.69;100.00;100846.78;5071693;28;20501;-51
2023/03/18 05:26:25;;;;;;;66.68;28.30;;;;;;;9.67;100.00;100852.31;5071931;28;20105;-52
2023/03/18 05:28:51;;;;;;;63.42;27.98;;;;;;;9.66;100.00;100847.09;5071967;28;20035;-51
2023/03/18 05:31:17;;;;;;;58.40;27.63;;;;;;;9.67;100.00;100840.72;5071486;28;20035;-50
2023/03/18 05:33:42;;;;;;;60.67;28.13;;;;;;;9.68;100.00;100840.53;5071716;28;20125;-51
2023/03/18 05:36:08;;;;;;;57.85;26.48;;;;;;;9.70;100.00;100832.31;5071526;28;20056;-51
2023/03/18 05:38:33;;;;;;;63.40;26.73;;;;;;;9.72;100.00;100840.22;5071233;28;20043;-53
2023/03/18 05:40:59;;;;;;;61.45;28.02;;;;;;;9.72;100.00;100846.41;5071690;28;20548;-52
2023/03/18 05:43:27;;;;;;;58.88;27.70;;;;;;;9.73;100.00;100841.88;5072278;28;20024;-51
2023/03/18 05:45:53;;;;;;;56.10;25.75;;;;;;;9.74;100.00;100839.03;5070819;28;20082;-51
2023/03/18 05:48:18;;;;;;;51.45;27.27;;;;;;;9.71;100.00;100843.88;5071567;28;20032;-51
2023/03/18 05:50:43;;;;;;;53.72;26.70;;;;;;;9.67;100.00;100846.09;5071212;28;20043;-50
2023/03/18 05:53:10;;;;;;;59.38;26.90;;;;;;;9.62;100.00;100843.94;5070965;28;20102;-52
2023/03/18 05:55:37;;;;;;;48.22;26.13;;;;;;;9.59;100.00;100841.59;5070526;28;20237;-51
2023/03/18 05:58:02;;;;;;;58.92;27.27;;;;;;;9.56;100.00;100841.97;5069013;28;20411;-51
2023/03/18 06:00:29;;;;;;;58.78;25.70;;;;;;;9.54;100.00;100835.09;5071264;28;20055;-51
2023/03/18 06:02:58;;;;;;;51.15;24.77;;;;;;;9.48;100.00;100841.13;5071094;28;20166;-50
2023/03/18 06:05:25;;;;;;;56.78;27.08;;;;;;;9.42;100.00;100856.94;5070847;28;20078;-53
2023/03/18 06:07:51;;;;;;;55.10;26.45;;;;;;;9.38;100.00;100861.00;5070843;28;20032;-53
2023/03/18 06:10:17;;;;;;;59.33;28.13;;;;;;;9.31;100.00;100860.00;5070462;28;20467;-51
2023/03/18 06:12:43;;;;;;;56.88;28.17;;;;;;;9.28;100.00;100870.28;5070416;28;20051;-51
2023/03/18 06:15:09;;;;;;;67.18;31.38;;;;;;;9.27;100.00;100865.91;5071391;28;20094;-53
2023/03/18 06:17:35;;;;;;;63.08;29.90;;;;;;;9.23;100.00;100870.78;5072691;28;20025;-50
2023/03/18 06:20:01;;;;;;;67.03;30.30;;;;;;;9.23;100.00;100878.84;5070597;28;20444;-54
2023/03/18 06:22:26;;;;;;;69.35;30.75;;;;;;;9.24;100.00;100888.56;5070922;28;20017;-50
2023/03/18 06:24:52;;;;;;;74.13;31.55;;;;;;;9.27;100.00;100893.63;5069590;28;20028;-51
2023/03/18 06:27:18;;;;;;;67.07;34.03;;;;;;;9.32;100.00;100904.69;5070527;28;20039;-50
2023/03/18 06:29:43;;;;;;;76.95;32.63;;;;;;;9.36;100.00;100913.22;5070284;28;20058;-51
2023/03/18 06:32:09;;;;;;;69.32;31.75;;;;;;;9.49;100.00;100915.38;5069893;28;20127;-53
2023/03/18 06:34:35;;;;;;;70.35;31.15;;;;;;;9.56;100.00;100919.88;5069722;28;20036;-52
2023/03/18 06:37:01;;;;;;;79.07;31.52;;;;;;;9.62;100.00;100931.78;5070447;28;20051;-54
2023/03/18 06:39:27;;;;;;;75.18;33.53;;;;;;;9.76;100.00;100930.22;5071153;28;20532;-51
2023/03/18 06:41:53;;;;;;;70.10;31.92;;;;;;;9.86;100.00;100928.97;5071100;28;20078;-50
2023/03/18 06:44:22;;;;;;;76.03;31.75;;;;;;;9.94;100.00;100921.91;5070879;28;20021;-52
2023/03/18 06:46:47;;;;;;;71.75;33.03;;;;;;;10.12;100.00;100925.16;5070952;28;20068;-51
2023/03/18 06:49:13;;;;;;;64.03;29.88;;;;;;;10.14;100.00;100930.34;5071080;28;20048;-52
2023/03/18 06:51:39;;;;;;;73.65;30.90;;;;;;;10.28;100.00;100927.78;5070865;28;20094;-53
2023/03/18 06:54:05;;;;;;;64.13;30.60;;;;;;;10.57;100.00;100920.84;5071225;28;20447;-51
2023/03/18 06:56:32;;;;;;;65.40;29.08;;;;;;;11.02;100.00;100916.44;5070446;28;20063;-52
2023/03/18 06:58:58;;;;;;;54.53;27.38;;;;;;;11.46;100.00;100920.19;5071368;28;20411;-51
2023/03/18 07:01:23;;;;;;;62.88;26.80;;;;;;;11.75;100.00;100898.59;5070482;28;20025;-52
2023/03/18 07:03:49;;;;;;;61.88;25.52;;;;;;;12.26;100.00;100893.19;5071057;28;20409;-55
2023/03/18 07:06:15;;;;;;;53.03;24.70;;;;;;;12.21;100.00;100881.31;5070886;28;20028;-50
2023/03/18 07:08:40;;;;;;;59.58;25.60;;;;;;;12.32;100.00;100882.66;5071220;28;20120;-51
2023/03/18 07:11:06;;;;;;;53.45;26.02;;;;;;;12.39;100.00;100873.59;5069380;28;20332;-50
2023/03/18 07:13:31;;;;;;;52.30;25.33;;;;;;;12.52;100.00;100865.63;5070400;28;20028;-52
2023/03/18 07:15:57;;;;;;;51.70;23.00;;;;;;;12.84;100.00;100855.28;5070872;28;20028;-54
2023/03/18 07:18:23;;;;;;;53.53;23.67;;;;;;;12.77;100.00;100865.22;5069571;28;20060;-50
2023/03/18 07:20:48;;;;;;;65.35;23.90;;;;;;;12.69;100.00;100863.50;5070841;28;20456;-50
2023/03/18 07:23:14;;;;;;;53.47;23.00;;;;;;;12.68;100.00;100877.19;5066805;28;20041;-50
2023/03/18 07:25:41;;;;;;;56.42;23.60;;;;;;;12.75;100.00;100880.78;5071552;28;20463;-52
2023/03/18 07:28:06;;;;;;;54.53;23.20;;;;;;;13.44;100.00;100871.91;5071127;28;20035;-50
2023/03/18 07:30:32;;;;;;;49.83;22.23;;;;;;;14.04;100.00;100867.56;5063646;28;20025;-50
2023/03/18 07:32:58;;;;;;;56.40;21.92;;;;;;;14.55;100.00;100862.69;5051407;28;20041;-51
2023/03/18 07:35:24;;;;;;;43.75;20.70;;;;;;;15.44;100.00;100858.59;5051221;28;20043;-52
2023/03/18 07:37:50;;;;;;;45.42;20.83;;;;;;;15.61;100.00;100858.97;5056459;28;20032;-50
2023/03/18 07:40:15;;;;;;;44.22;20.80;;;;;;;15.37;100.00;100850.47;5070317;28;20385;-52
2023/03/18 07:42:41;;;;;;;52.72;21.95;;;;;;;15.32;100.00;100850.28;5070145;28;20029;-50
2023/03/18 07:45:07;;;;;;;46.40;20.67;;;;;;;16.19;100.00;100853.47;5070109;28;20020;-50
2023/03/18 07:47:33;;;;;;;47.97;22.17;;;;;;;15.72;100.00;100848.31;5070380;28;20064;-51
2023/03/18 07:49:58;;;;;;;51.72;23.15;;;;;;;14.82;100.00;100853.50;5069238;28;20059;-51
2023/03/18 07:52:24;;;;;;;53.88;24.65;;;;;;;14.45;100.00;100857.63;5070388;28;20052;-51
2023/03/18 07:54:50;;;;;;;45.92;22.73;;;;;;;14.35;100.00;100873.44;5069726;28;20024;-51
2023/03/18 07:57:15;;;;;;;54.17;23.98;;;;;;;14.57;100.00;100872.28;5069887;28;20012;-51
2023/03/18 07:59:41;;;;;;;46.90;22.55;;;;;;;14.99;100.00;100886.44;5070888;28;20104;-50
2023/03/18 08:02:07;;;;;;;55.65;23.20;;;;;;;14.88;100.00;100885.19;5070048;28;20029;-51
2023/03/18 08:04:34;;;;;;;48.65;23.55;;;;;;;14.30;100.00;100887.63;5068028;28;20040;-51
2023/03/18 08:07:00;;;;;;;51.92;22.08;;;;;;;14.24;100.00;100883.00;5069908;28;20032;-49
2023/03/18 08:09:26;;;;;;;51.58;22.92;;;;;;;13.97;100.00;100879.41;5069315;28;20032;-51
2023/03/18 08:11:52;;;;;;;65.90;23.70;;;;;;;13.36;100.00;100869.38;5069085;28;20104;-51
2023/03/18 08:14:17;;;;;;;55.08;23.08;;;;;;;13.77;100.00;100877.47;5069857;28;20107;-55
2023/03/18 08:16:43;;;;;;;48.92;22.23;;;;;;;14.54;100.00;100872.69;5069304;28;20086;-50
2023/03/18 08:19:08;;;;;;;57.35;21.95;;;;;;;15.21;100.00;100887.03;5070005;28;20116;-50
2023/03/18 08:21:34;;;;;;;56.47;21.92;;;;;;;14.72;100.00;100872.06;5070326;28;20044;-49
2023/03/18 08:23:59;;;;;;;47.13;21.52;;;;;;;15.42;100.00;100882.38;5070946;28;20048;-50
2023/03/18 08:26:25;;;;;;;49.53;21.90;;;;;;;15.76;100.00;100878.53;5071172;28;20033;-50
2023/03/18 08:28:50;;;;;;;53.67;21.65;;;;;;;16.09;100.00;100869.41;5071552;28;20033;-51
2023/03/18 08:31:15;;;;;;;58.55;23.58;;;;;;;15.04;100.00;100870.38;5070354;28;20025;-51
2023/03/18 08:33:41;;;;;;;51.75;23.10;;;;;;;14.94;100.00;100878.09;5070186;28;20479;-51
2023/03/18 08:36:07;;;;;;;55.78;23.15;;;;;;;14.62;100.00;100877.91;5070778;28;20036;-50
2023/03/18 08:38:33;;;;;;;52.45;24.30;;;;;;;14.88;100.00;100881.66;5070629;28;20494;-50
2023/03/18 08:40:58;;;;;;;50.58;22.40;;;;;;;15.82;100.00;100891.25;5070335;28;20064;-50
2023/03/18 08:43:24;;;;;;;59.90;24.42;;;;;;;16.85;100.00;100879.31;5070016;28;20569;-50
2023/03/18 08:45:52;;;;;;;59.45;25.27;;;;;;;15.82;100.00;100896.66;5070102;28;20059;-50
2023/03/18 08:48:18;;;;;;;58.60;24.00;;;;;;;15.57;100.00;100907.38;5070201;28;20064;-52
2023/03/18 08:50:43;;;;;;;55.47;25.15;;;;;;;16.03;100.00;100900.97;5070238;28;20056;-50
2023/03/18 08:53:08;;;;;;;53.63;25.92;;;;;;;17.17;100.00;100892.84;5070466;28;20039;-52
2023/03/18 08:55:39;;;;;;;52.53;25.00;;;;;;;18.32;100.00;100901.09;5070636;28;20063;-49
2023/03/18 08:58:05;;;;;;;60.83;26.73;;;;;;;16.46;100.00;100912.00;5070295;28;20028;-50
2023/03/18 09:00:31;;;;;;;54.90;23.20;;;;;;;17.08;100.00;100905.91;5070511;28;20386;-50
2023/03/18 09:02:57;;;;;;;56.78;24.98;;;;;;;16.32;100.00;100913.13;5069467;28;20059;-51
2023/03/18 09:05:23;;;;;;;61.92;26.73;;;;;;;15.52;100.00;100921.59;5070031;28;20056;-49
2023/03/18 09:07:49;;;;;;;52.55;24.70;;;;;;;15.56;100.00;100916.56;5072602;28;20020;-50
2023/03/18 09:10:16;;;;;;;55.88;23.15;;;;;;;15.07;100.00;100916.03;5073280;28;20021;-51
2023/03/18 09:12:42;;;;;;;59.10;26.20;;;;;;;14.80;100.00;100911.69;5073634;28;20136;-50
2023/03/18 09:15:09;;;;;;;67.65;28.35;;;;;;;14.63;100.00;100916.66;5073276;28;20032;-50
2023/03/18 09:17:36;;;;;;;63.75;26.25;;;;;;;14.89;100.00;100923.97;5073542;28;20046;-50
2023/03/18 09:20:02;;;;;;;65.80;26.63;;;;;;;14.85;100.00;100918.13;5073324;28;20075;-52
2023/03/18 09:22:28;;;;;;;58.42;25.52;;;;;;;14.83;100.00;100905.84;5073590;28;20111;-49
2023/03/18 09:24:53;;;;;;;63.15;27.25;;;;;;;15.39;100.00;100915.38;5073763;28;20482;-49
2023/03/18 09:27:19;;;;;;;61.17;27.33;;;;;;;16.26;100.00;100897.72;5074226;28;20119;-51
2023/03/18 09:29:44;;;;;;;62.85;30.10;;;;;;;17.19;100.00;100886.13;5073083;28;20143;-50
2023/03/18 09:32:10;;;;;;;58.83;27.92;;;;;;;17.58;100.00;100899.53;5073185;28;20024;-51
2023/03/18 09:34:35;;;;;;;64.72;29.27;;;;;;;17.39;100.00;100912.31;5073671;28;20029;-50
2023/03/18 09:37:00;;;;;;;59.65;28.65;;;;;;;16.72;100.00;100907.44;5073048;28;20024;-50
2023/03/18 09:39:26;;;;;;;66.20;27.98;;;;;;;16.24;100.00;100913.38;5064961;28;20033;-49
2023/03/18 09:42:06;;;;;;;64.88;25.38;;;;;;;16.63;100.00;100911.47;5073297;28;20487;-51
2023/03/18 09:44:35;;;;;;;59.08;26.42;;;;;;;16.36;100.00;100913.53;5072128;28;20029;-52
2023/03/18 09:47:22;;;;;;;73.88;35.70;;;;;;;15.74;100.00;100938.44;5072877;28;20028;-51
2023/03/18 09:50:08;;;;;;;93.53;42.33;;;;;;;15.20;100.00;100914.34;5072560;28;20071;-50
2023/03/18 09:53:08;;;;;;;75.82;35.80;;;;;;;15.72;100.00;100923.47;5073631;28;20455;-49
2023/03/18 09:55:49;;;;;;;67.28;31.83;;;;;;;15.65;100.00;100926.16;5058182;28;20049;-50
2023/03/18 09:58:23;;;;;;;77.78;30.83;;;;;;;14.98;100.00;100927.28;5069089;28;20176;-52
2023/03/18 10:00:51;;;;;;;58.80;26.35;;;;;;;14.86;100.00;100919.78;5059148;28;20025;-53
2023/03/18 10:03:37;;;;;;;57.85;25.55;;;;;;;14.55;100.00;100922.25;5047736;28;20490;-51
2023/03/18 10:06:08;;;;;;;71.47;30.10;;;;;;;14.42;100.00;100918.47;5050322;28;20029;-51
2023/03/18 10:08:45;;;;;;;72.47;30.85;;;;;;;14.50;100.00;100930.97;5057941;28;20024;-51
2023/03/18 10:11:18;;;;;;;74.63;32.38;;;;;;;14.55;100.00;100927.69;5067539;28;20032;-52
2023/03/18 10:13:51;;;;;;;70.55;32.17;;;;;;;14.59;100.00;100924.38;5052282;28;20025;-50
2023/03/18 10:16:21;;;;;;;67.88;30.15;;;;;;;14.78;100.00;100928.13;5050491;28;20083;-51
2023/03/18 10:18:48;;;;;;;71.65;31.33;;;;;;;14.70;100.00;100915.63;5049177;28;20021;-50
2023/03/18 10:21:33;;;;;;;66.95;28.42;;;;;;;14.68;100.00;100920.41;5050759;28;20403;-53
2023/03/18 10:24:08;;;;;;;67.72;30.05;;;;;;;14.38;100.00;100919.91;5055013;28;20013;-51
2023/03/18 10:26:44;;;;;;;71.88;30.55;;;;;;;14.75;100.00;100917.72;5069908;28;20432;-53
2023/03/18 10:29:36;;;;;;;63.20;26.77;;;;;;;14.84;100.00;100919.16;5056044;28;20379;-51
2023/03/18 10:32:14;;;;;;;71.18;26.45;;;;;;;14.56;100.00;100919.38;5050621;28;20028;-52
2023/03/18 10:34:40;;;;;;;58.55;26.33;;;;;;;14.63;100.00;100930.19;5051444;28;20440;-50
2023/03/18 10:37:22;;;;;;;67.88;27.25;;;;;;;14.38;100.00;100928.03;5050471;28;20025;-52
2023/03/18 10:39:48;;;;;;;72.80;29.45;;;;;;;14.16;100.00;100932.75;5052956;28;20048;-52
2023/03/18 10:42:22;;;;;;;64.63;27.70;;;;;;;14.30;100.00;100924.66;5070114;28;20102;-53
2023/03/18 10:44:49;;;;;;;64.72;26.00;;;;;;;14.14;100.00;100942.13;5071487;28;20117;-53
2023/03/18 10:47:25;;;;;;;62.08;26.55;;;;;;;14.50;100.00;100941.81;5071647;28;20024;-50
2023/03/18 10:50:04;;;;;;;54.85;22.60;;;;;;;14.04;100.00;100942.50;5071089;28;20093;-52
2023/03/18 10:52:36;;;;;;;56.35;22.00;;;;;;;13.74;100.00;100942.78;5070102;28;20072;-51
2023/03/18 10:55:01;;;;;;;61.83;21.02;;;;;;;13.97;100.00;100936.22;5069727;28;20017;-51
2023/03/18 10:57:27;;;;;;;52.88;21.27;;;;;;;14.21;100.00;100941.09;5071065;28;20040;-51
2023/03/18 10:59:52;;;;;;;57.55;21.52;;;;;;;14.06;100.00;100956.69;5070794;28;20474;-50
2023/03/18 11:02:33;;;;;;;56.88;22.23;;;;;;;13.79;100.00;100961.94;5070907;28;20447;-51
2023/03/18 11:05:04;;;;;;;59.05;21.80;;;;;;;13.48;100.00;100965.13;5069271;28;20033;-51